createdAt,value
2022-12-12T10:16:57.724Z,0.90
2022-12-12T10:21:54.698Z,1.10
2022-12-12T10:26:52.389Z,1.50
2022-12-12T10:31:56.036Z,1.80
2022-12-12T10:37:06.369Z,2.00
2022-12-12T10:42:05.894Z,2.20
2022-12-12T10:47:06.574Z,2.40
2022-12-12T10:52:05.100Z,2.70
2022-12-12T10:57:18.185Z,2.90
2022-12-12T11:02:39.194Z,3.30
2022-12-12T11:07:33.744Z,3.60
2022-12-12T11:12:34.973Z,3.70
2022-12-12T11:17:32.691Z,3.80
2022-12-12T11:22:29.427Z,4.20
2022-12-12T11:27:27.991Z,4.30
2022-12-12T11:32:24.125Z,4.60
2022-12-12T11:37:20.009Z,5.30
2022-12-12T11:42:25.765Z,5.90
2022-12-12T11:47:27.406Z,6.00
2022-12-12T11:52:23.762Z,5.90
2022-12-12T11:57:30.881Z,6.00
2022-12-12T12:02:53.548Z,6.00
2022-12-12T12:08:01.401Z,6.10
2022-12-12T12:13:05.120Z,6.60
2022-12-12T12:18:25.125Z,7.00
2022-12-12T12:23:37.644Z,8.00
2022-12-12T12:29:10.713Z,8.10
2022-12-12T12:34:15.908Z,8.40
2022-12-12T12:39:22.104Z,8.90
2022-12-12T12:44:31.727Z,9.20
2022-12-12T12:49:31.865Z,9.50
2022-12-12T12:54:27.900Z,9.60
2022-12-12T12:59:28.414Z,9.60
2022-12-12T13:04:25.940Z,9.40
2022-12-12T13:09:34.483Z,9.30
2022-12-12T13:14:39.607Z,9.30
2022-12-12T13:19:38.163Z,9.20
2022-12-12T13:24:39.255Z,9.20
2022-12-12T13:29:37.831Z,9.00
2022-12-12T13:34:33.811Z,8.90
2022-12-12T13:39:31.173Z,7.30
2022-12-12T13:44:38.688Z,6.50
2022-12-12T13:49:47.688Z,5.80
2022-12-12T13:54:46.216Z,4.80
2022-12-12T14:00:16.629Z,4.20
2022-12-12T14:05:16.258Z,3.70
2022-12-12T14:10:25.656Z,3.50
2022-12-12T14:15:32.576Z,3.40
2022-12-12T14:20:33.633Z,3.30
2022-12-12T14:25:37.992Z,3.10
2022-12-12T14:30:54.616Z,2.90
2022-12-12T14:36:00.781Z,2.80
2022-12-12T14:40:58.823Z,2.60
2022-12-12T14:46:00.325Z,2.50
2022-12-12T14:50:59.238Z,2.30
2022-12-12T14:55:56.023Z,2.10
2022-12-12T15:00:54.838Z,1.90
2022-12-12T15:06:35.415Z,1.70
2022-12-12T15:11:35.929Z,1.50
2022-12-12T15:16:36.995Z,1.30
2022-12-12T15:21:36.735Z,1.20
2022-12-12T15:26:31.256Z,1.00
2022-12-12T15:31:28.209Z,1.00
2022-12-12T15:36:29.424Z,0.80
2022-12-12T15:41:24.660Z,0.70
2022-12-12T15:46:20.498Z,0.50
2022-12-12T15:51:21.099Z,0.30
2022-12-12T15:56:30.568Z,0.00
2022-12-12T16:01:28.209Z,-0.10
2022-12-12T16:06:25.618Z,-0.30
2022-12-12T16:11:39.365Z,-0.30
2022-12-12T16:16:43.155Z,-0.40
2022-12-12T16:21:44.029Z,-0.70
2022-12-12T16:26:41.342Z,-0.70
2022-12-12T16:31:35.448Z,-0.80
2022-12-12T16:36:30.335Z,-0.90
2022-12-12T16:41:24.196Z,-0.90
2022-12-12T16:46:21.524Z,-1.00
2022-12-12T16:51:34.327Z,-1.10
2022-12-12T16:56:28.587Z,-1.20
2022-12-12T17:01:24.075Z,-1.40
2022-12-12T17:06:17.801Z,-1.60
2022-12-12T17:11:12.863Z,-1.70
2022-12-12T17:16:06.738Z,-1.60
2022-12-12T17:21:01.868Z,-1.50
2022-12-12T17:26:03.109Z,-1.40
2022-12-12T17:30:57.472Z,-1.30
2022-12-12T17:35:59.137Z,-1.30
2022-12-12T17:40:56.856Z,-1.40
2022-12-12T17:45:59.819Z,-1.60
2022-12-12T17:50:58.930Z,-1.70
2022-12-12T17:56:01.764Z,-1.70
2022-12-12T18:01:02.335Z,-1.80
2022-12-12T18:05:56.242Z,-1.90
2022-12-12T18:10:50.876Z,-1.90
2022-12-12T18:15:45.997Z,-2.00
2022-12-12T18:20:40.074Z,-2.20
2022-12-12T18:25:37.968Z,-2.20
2022-12-12T18:30:32.206Z,-2.30
2022-12-12T18:35:28.771Z,-2.50
2022-12-12T18:40:22.413Z,-2.50
2022-12-12T18:45:17.708Z,-2.40
2022-12-12T18:50:11.993Z,-2.40
2022-12-12T18:55:08.637Z,-2.40
2022-12-12T19:00:02.537Z,-2.40
2022-12-12T19:04:56.178Z,-2.50
2022-12-12T19:09:49.796Z,-2.60
2022-12-12T19:15:15.207Z,-2.80
2022-12-12T19:19:59.564Z,-3.00
2022-12-12T19:24:53.213Z,-3.10
2022-12-12T19:29:49.093Z,-3.10
2022-12-12T19:34:43.234Z,-3.20
2022-12-12T19:39:36.886Z,-3.20
2022-12-12T19:44:30.485Z,-3.40
2022-12-12T19:49:25.741Z,-3.50
